Terminal Aerodrome Forecast
Issued by NWS Jacksonville, FL

Home | Current Version | Previous Version | Text Only | Print | Product List | Glossary On
Versions: 1 2 3 4 5 6 7 8 9 10 11 12 13 14 15 16 17 18 19
963
FTUS42 KJAX 241721
TAFJAX
TAF
KJAX 241721Z 2418/2518 34005KT P6SM SCT035
     FM241900 06007KT P6SM VCSH BKN050
     FM242300 VRB03KT P6SM FEW050 SCT250
     FM250900 00000KT 4SM BR FEW250
     FM251300 03006KT P6SM SCT030
     FM251600 05007KT P6SM VCTS BKN050CB=

USA.gov is the U.S. government's official web portal to all federal, state and local government web resources and services.